createdAt,value
2024-03-02T00:02:17.309Z,0.40
2024-03-02T00:04:46.440Z,0.50
2024-03-02T00:07:15.896Z,0.43
2024-03-02T00:09:44.014Z,0.40
2024-03-02T00:12:16.357Z,0.50
2024-03-02T00:14:43.666Z,0.40
2024-03-02T00:17:25.661Z,0.20
2024-03-02T00:19:52.678Z,0.65
2024-03-02T00:22:19.837Z,0.50
2024-03-02T00:24:46.933Z,0.80
2024-03-02T00:27:16.778Z,0.57
2024-03-02T00:29:44.064Z,0.70
2024-03-02T00:32:16.781Z,0.40
2024-03-02T00:34:43.702Z,0.57
2024-03-02T00:37:12.938Z,0.35
2024-03-02T00:39:40.157Z,0.65
2024-03-02T00:42:07.065Z,0.60
2024-03-02T00:44:37.136Z,0.40
2024-03-02T00:47:04.286Z,0.40
2024-03-02T00:49:31.248Z,0.30
2024-03-02T00:51:58.665Z,0.50
2024-03-02T00:54:27.947Z,0.40
2024-03-02T00:56:56.990Z,0.50
2024-03-02T00:59:26.932Z,0.30
2024-03-02T01:01:54.473Z,0.30
2024-03-02T01:04:21.370Z,0.20
2024-03-02T01:06:49.172Z,0.40
2024-03-02T01:09:16.226Z,0.30
2024-03-02T01:11:43.111Z,0.50
2024-03-02T01:14:10.105Z,0.40
2024-03-02T01:16:36.941Z,0.52
2024-03-02T01:19:04.018Z,0.50
2024-03-02T01:21:30.981Z,0.60
2024-03-02T01:23:57.907Z,0.43
2024-03-02T01:26:24.711Z,0.73
2024-03-02T01:28:51.584Z,0.50
2024-03-02T01:31:18.573Z,0.63
2024-03-02T01:33:45.542Z,0.63
2024-03-02T01:36:12.628Z,0.60
2024-03-02T01:38:39.504Z,0.40
2024-03-02T01:41:06.447Z,0.60
2024-03-02T01:43:33.337Z,0.40
2024-03-02T01:46:00.665Z,0.52
2024-03-02T01:48:27.667Z,0.60
2024-03-02T01:50:54.575Z,0.30
2024-03-02T01:53:21.507Z,0.60
2024-03-02T01:55:48.371Z,0.38
2024-03-02T01:58:15.412Z,0.30
2024-03-02T02:00:42.513Z,0.50
2024-03-02T02:03:09.708Z,0.45
2024-03-02T02:05:36.838Z,0.32
2024-03-02T02:08:03.927Z,0.57
2024-03-02T02:10:30.885Z,0.32
2024-03-02T02:12:58.133Z,0.70
2024-03-02T02:15:29.362Z,0.47
2024-03-02T02:17:57.654Z,0.70
2024-03-02T02:20:25.737Z,0.43
2024-03-02T02:23:00.017Z,0.50
2024-03-02T02:25:27.598Z,0.40
2024-03-02T02:27:54.853Z,0.70
2024-03-02T02:30:27.344Z,0.70
2024-03-02T02:32:54.801Z,1.27
2024-03-02T02:35:21.911Z,0.47
2024-03-02T02:37:50.168Z,0.40
2024-03-02T02:40:17.736Z,0.40
2024-03-02T02:42:44.702Z,0.60
2024-03-02T02:45:14.085Z,0.57
2024-03-02T02:47:42.152Z,0.55
2024-03-02T02:50:10.043Z,0.30
2024-03-02T02:52:40.746Z,0.50
2024-03-02T02:55:17.410Z,0.20
2024-03-02T02:57:45.358Z,0.30
2024-03-02T03:00:18.407Z,0.30
2024-03-02T03:05:15.832Z,0.32
2024-03-02T03:07:43.630Z,0.35
2024-03-02T03:10:10.704Z,0.30
2024-03-02T03:12:37.829Z,0.43
2024-03-02T03:15:09.679Z,0.30
2024-03-02T03:17:38.436Z,0.40
2024-03-02T03:20:07.070Z,0.20
2024-03-02T03:22:34.246Z,0.30
2024-03-02T03:25:01.547Z,0.20
2024-03-02T03:27:29.051Z,0.30
2024-03-02T03:29:56.339Z,0.43
2024-03-02T03:32:23.482Z,0.40
2024-03-02T03:34:50.388Z,0.30
2024-03-02T03:37:17.698Z,0.30
2024-03-02T03:39:44.648Z,0.45
2024-03-02T03:42:11.487Z,0.60
2024-03-02T03:44:38.453Z,0.40
2024-03-02T03:47:05.433Z,0.40
2024-03-02T03:49:32.434Z,0.60
2024-03-02T03:51:59.443Z,0.38
2024-03-02T03:54:26.441Z,0.25
2024-03-02T03:56:53.717Z,0.60
2024-03-02T03:59:20.809Z,0.30
2024-03-02T04:01:47.944Z,0.30
2024-03-02T04:04:14.919Z,0.30
2024-03-02T04:06:41.984Z,1.20
2024-03-02T04:09:09.107Z,0.30
2024-03-02T04:11:35.938Z,0.30
2024-03-02T04:14:02.901Z,0.40
2024-03-02T04:16:29.934Z,0.40
2024-03-02T04:18:56.951Z,0.50
2024-03-02T04:21:23.904Z,0.50
2024-03-02T04:23:50.814Z,0.52
2024-03-02T04:26:23.182Z,0.40
2024-03-02T04:28:50.109Z,0.40
2024-03-02T04:31:18.020Z,0.40
2024-03-02T04:33:45.082Z,0.40
2024-03-02T04:36:12.276Z,0.30
2024-03-02T04:38:39.854Z,0.45
2024-03-02T04:41:07.580Z,0.40
2024-03-02T04:43:35.148Z,0.60
2024-03-02T04:46:02.622Z,0.40
2024-03-02T04:48:30.184Z,0.47
2024-03-02T04:50:57.285Z,0.40
2024-03-02T04:53:24.142Z,0.43
2024-03-02T04:55:56.878Z,0.50
2024-03-02T04:58:23.862Z,0.75
2024-03-02T05:00:51.061Z,0.40
2024-03-02T05:03:18.137Z,0.65
2024-03-02T05:05:45.751Z,0.50
2024-03-02T05:08:13.376Z,0.50
2024-03-02T05:10:40.322Z,0.73
2024-03-02T05:13:07.284Z,0.60
2024-03-02T05:15:34.302Z,0.47
2024-03-02T05:18:03.641Z,0.30
2024-03-02T05:20:30.580Z,0.68
2024-03-02T05:22:57.420Z,0.88
2024-03-02T05:25:24.461Z,0.60
2024-03-02T05:27:51.510Z,0.57
2024-03-02T05:30:18.471Z,0.50
2024-03-02T05:32:45.376Z,0.70
2024-03-02T05:35:14.102Z,0.65
2024-03-02T05:37:41.221Z,0.68
2024-03-02T05:40:09.285Z,1.05
2024-03-02T05:42:36.379Z,0.45
2024-03-02T05:45:03.428Z,0.45
2024-03-02T05:47:30.369Z,0.70
2024-03-02T05:49:57.269Z,0.95
2024-03-02T05:52:24.149Z,0.70
2024-03-02T05:54:51.276Z,0.60
2024-03-02T05:57:23.423Z,0.80
2024-03-02T05:59:50.310Z,0.95
2024-03-02T06:02:17.226Z,0.90
2024-03-02T06:04:44.235Z,0.60
2024-03-02T06:07:11.132Z,0.88
2024-03-02T06:09:39.015Z,0.68
2024-03-02T06:12:06.287Z,1.00
2024-03-02T06:14:33.233Z,1.00
2024-03-02T06:17:00.799Z,1.10
2024-03-02T06:19:28.939Z,0.85
2024-03-02T06:21:56.105Z,0.95
2024-03-02T06:24:23.181Z,0.80
2024-03-02T06:26:50.145Z,1.23
2024-03-02T06:29:17.007Z,0.82
2024-03-02T06:31:43.977Z,0.90
2024-03-02T06:34:10.963Z,1.02
2024-03-02T06:36:38.038Z,0.90
2024-03-02T06:39:04.980Z,0.80
2024-03-02T06:41:32.331Z,0.70
2024-03-02T06:44:01.881Z,0.90
2024-03-02T06:46:28.791Z,0.90
2024-03-02T06:48:56.032Z,0.75
2024-03-02T06:51:23.163Z,1.25
2024-03-02T06:53:50.068Z,1.13
2024-03-02T06:56:16.912Z,0.80
2024-03-02T06:58:44.372Z,1.10
2024-03-02T07:01:11.423Z,0.88
2024-03-02T07:03:40.796Z,0.88
2024-03-02T07:06:07.731Z,1.30
2024-03-02T07:08:35.143Z,1.10
2024-03-02T07:11:02.355Z,1.42
2024-03-02T07:13:29.221Z,1.17
2024-03-02T07:16:05.234Z,1.00
2024-03-02T07:18:32.584Z,1.92
2024-03-02T07:21:02.200Z,1.17
2024-03-02T07:23:29.367Z,1.08
2024-03-02T07:28:27.996Z,1.23
2024-03-02T07:31:05.874Z,1.10
2024-03-02T07:33:33.343Z,1.38
2024-03-02T07:36:04.664Z,1.58
2024-03-02T07:38:32.989Z,1.15
2024-03-02T07:41:00.031Z,1.13
2024-03-02T07:43:27.018Z,1.55
2024-03-02T07:45:54.290Z,1.20
2024-03-02T07:48:21.386Z,1.40
2024-03-02T07:50:48.528Z,1.48
2024-03-02T07:53:15.965Z,1.33
2024-03-02T07:55:43.025Z,1.40
2024-03-02T07:58:10.358Z,1.30
2024-03-02T08:00:37.622Z,1.27
2024-03-02T08:03:04.973Z,1.00
2024-03-02T08:05:31.963Z,1.05
2024-03-02T08:07:59.201Z,1.15
2024-03-02T08:10:26.106Z,1.20
2024-03-02T08:12:52.993Z,1.67
2024-03-02T08:15:19.968Z,0.88
2024-03-02T08:17:50.236Z,0.95
2024-03-02T08:20:17.536Z,1.00
2024-03-02T08:22:44.655Z,1.00
2024-03-02T08:25:12.129Z,1.40
2024-03-02T08:27:41.316Z,1.10
2024-03-02T08:30:09.576Z,0.90
2024-03-02T08:32:36.554Z,1.65
2024-03-02T08:35:04.153Z,1.00
2024-03-02T08:37:30.995Z,1.30
2024-03-02T08:39:58.067Z,1.20
2024-03-02T08:42:25.169Z,1.13
2024-03-02T08:44:53.243Z,1.30
2024-03-02T08:47:20.168Z,1.15
2024-03-02T08:49:47.165Z,1.40
2024-03-02T08:52:14.229Z,1.55
2024-03-02T08:54:41.149Z,1.23
2024-03-02T08:57:08.488Z,1.15
2024-03-02T08:59:35.612Z,1.20
2024-03-02T09:02:02.512Z,1.20
2024-03-02T09:04:33.722Z,1.23
2024-03-02T09:07:02.415Z,1.23
2024-03-02T09:09:29.747Z,1.30
2024-03-02T09:11:59.151Z,1.30
2024-03-02T09:14:26.437Z,1.05
2024-03-02T09:16:53.311Z,1.92
2024-03-02T09:19:20.292Z,1.45
2024-03-02T09:21:47.369Z,1.23
2024-03-02T09:24:16.691Z,1.42
2024-03-02T09:26:45.342Z,1.13
2024-03-02T09:29:12.659Z,1.30
2024-03-02T09:31:42.997Z,2.63
2024-03-02T09:34:10.386Z,1.52
2024-03-02T09:36:37.417Z,1.40
2024-03-02T09:39:05.352Z,1.77
2024-03-02T09:41:34.234Z,1.15
2024-03-02T09:44:01.845Z,1.92
2024-03-02T09:46:28.838Z,1.50
2024-03-02T09:48:56.065Z,1.83
2024-03-02T09:51:23.525Z,1.75
2024-03-02T09:53:51.130Z,1.20
2024-03-02T09:56:19.423Z,1.50
2024-03-02T09:58:46.535Z,1.27
2024-03-02T10:01:13.708Z,1.30
2024-03-02T10:03:42.985Z,1.33
2024-03-02T10:06:27.553Z,1.60
2024-03-02T10:08:56.141Z,1.00
2024-03-02T10:11:35.478Z,1.45
2024-03-02T10:14:16.307Z,1.40
2024-03-02T10:16:45.007Z,1.27
2024-03-02T10:19:24.515Z,2.05
2024-03-02T10:21:53.247Z,1.35
2024-03-02T10:24:21.267Z,1.35
2024-03-02T10:26:48.637Z,1.60
2024-03-02T10:29:15.632Z,0.90
2024-03-02T10:31:49.826Z,1.10
2024-03-02T10:34:19.473Z,1.10
2024-03-02T10:36:46.900Z,1.38
2024-03-02T10:39:15.725Z,1.35
2024-03-02T10:41:42.716Z,1.15
2024-03-02T10:44:10.842Z,1.38
2024-03-02T10:46:38.892Z,1.13
2024-03-02T10:49:08.710Z,1.45
2024-03-02T10:51:38.130Z,1.25
2024-03-02T10:54:06.344Z,1.75
2024-03-02T10:56:41.551Z,1.00
2024-03-02T10:59:19.266Z,1.17
2024-03-02T11:01:48.880Z,1.10
2024-03-02T11:04:20.051Z,1.40
2024-03-02T11:06:50.620Z,1.40
2024-03-02T11:09:21.212Z,1.08
2024-03-02T11:11:55.679Z,1.90
2024-03-02T11:14:26.903Z,1.40
2024-03-02T11:16:55.313Z,1.40
2024-03-02T11:19:22.758Z,1.30
2024-03-02T11:21:50.065Z,1.30
2024-03-02T11:24:23.395Z,1.85
2024-03-02T11:26:52.805Z,1.23
2024-03-02T11:29:38.052Z,1.55
2024-03-02T11:32:06.125Z,1.23
2024-03-02T11:34:34.528Z,1.90
2024-03-02T11:37:05.431Z,1.30
2024-03-02T11:39:32.591Z,1.35
2024-03-02T11:42:00.337Z,1.33
2024-03-02T11:44:28.975Z,1.55
2024-03-02T11:47:03.689Z,1.52
2024-03-02T11:49:41.938Z,1.65
2024-03-02T11:52:12.285Z,1.58
2024-03-02T11:54:40.791Z,1.40
2024-03-02T11:57:08.576Z,1.75
2024-03-02T11:59:35.716Z,1.20
2024-03-02T12:02:04.120Z,1.52
2024-03-02T12:04:32.357Z,1.48
2024-03-02T12:07:03.418Z,1.30
2024-03-02T12:09:31.188Z,1.30
2024-03-02T12:12:04.863Z,1.80
2024-03-02T12:17:00.053Z,1.60
2024-03-02T12:19:31.425Z,1.77
2024-03-02T12:21:59.392Z,1.45
2024-03-02T12:24:28.987Z,1.52
2024-03-02T12:26:56.224Z,1.58
2024-03-02T12:29:23.887Z,1.55
2024-03-02T12:31:51.938Z,1.25
2024-03-02T12:34:19.542Z,1.70
2024-03-02T12:36:50.626Z,1.23
2024-03-02T12:39:21.212Z,1.10
2024-03-02T12:41:48.689Z,1.45
2024-03-02T12:44:15.593Z,1.40
2024-03-02T12:46:42.911Z,1.25
2024-03-02T12:49:15.131Z,1.20
2024-03-02T12:51:42.972Z,1.60
2024-03-02T12:54:11.663Z,1.17
2024-03-02T12:56:39.084Z,1.40
2024-03-02T12:59:06.426Z,1.20
2024-03-02T13:01:33.697Z,1.50
2024-03-02T13:04:00.766Z,1.10
2024-03-02T13:06:30.961Z,1.30
2024-03-02T13:08:57.900Z,1.40
2024-03-02T13:11:25.941Z,1.45
2024-03-02T13:13:53.182Z,1.23
2024-03-02T13:16:27.149Z,1.00
2024-03-02T13:18:57.705Z,1.30
2024-03-02T13:21:24.616Z,1.33
2024-03-02T13:23:51.529Z,1.30
2024-03-02T13:26:18.635Z,1.48
2024-03-02T13:28:45.720Z,1.65
2024-03-02T13:31:13.483Z,1.30
2024-03-02T13:33:40.381Z,1.15
2024-03-02T13:36:07.919Z,1.00
2024-03-02T13:38:35.098Z,0.90
2024-03-02T13:41:02.393Z,1.40
2024-03-02T13:43:33.050Z,1.40
2024-03-02T13:46:00.340Z,1.15
2024-03-02T13:48:27.268Z,1.17
2024-03-02T13:50:54.571Z,1.75
2024-03-02T13:53:21.922Z,0.98
2024-03-02T13:55:49.056Z,1.73
2024-03-02T13:58:16.224Z,1.02
2024-03-02T14:00:43.448Z,1.15
2024-03-02T14:03:10.707Z,1.08
2024-03-02T14:05:37.936Z,1.48
2024-03-02T14:08:05.327Z,1.30
2024-03-02T14:10:32.209Z,1.30
2024-03-02T14:12:59.110Z,1.27
2024-03-02T14:15:26.025Z,1.13
2024-03-02T14:17:53.247Z,1.17
2024-03-02T14:20:23.711Z,0.93
2024-03-02T14:22:50.872Z,1.33
2024-03-02T14:25:18.710Z,1.30
2024-03-02T14:30:17.039Z,2.00
2024-03-02T14:32:43.970Z,0.90
2024-03-02T14:35:11.657Z,1.20
2024-03-02T14:37:38.943Z,1.20
2024-03-02T14:40:07.701Z,1.00
2024-03-02T14:42:34.959Z,1.63
2024-03-02T14:45:03.916Z,1.10
2024-03-02T14:47:32.862Z,1.17
2024-03-02T14:49:59.886Z,1.23
2024-03-02T14:52:26.837Z,1.00
2024-03-02T14:54:53.674Z,1.30
2024-03-02T14:57:20.563Z,1.20
2024-03-02T14:59:47.522Z,1.10
2024-03-02T15:02:14.361Z,1.13
2024-03-02T15:04:41.416Z,1.00
2024-03-02T15:07:08.468Z,1.15
2024-03-02T15:09:36.857Z,1.10
2024-03-02T15:12:04.348Z,1.30
2024-03-02T15:14:31.603Z,1.70
2024-03-02T15:16:59.108Z,1.05
2024-03-02T15:19:26.011Z,1.30
2024-03-02T15:21:53.233Z,1.05
2024-03-02T15:24:20.158Z,1.33
2024-03-02T15:26:47.085Z,0.93
2024-03-02T15:29:14.031Z,1.25
2024-03-02T15:31:40.985Z,1.00
2024-03-02T15:34:09.237Z,1.10
2024-03-02T15:36:36.554Z,1.10
2024-03-02T15:39:06.009Z,1.40
2024-03-02T15:41:33.224Z,1.08
2024-03-02T15:44:00.444Z,1.10
2024-03-02T15:46:27.540Z,1.30
2024-03-02T15:48:54.458Z,1.20
2024-03-02T15:51:21.802Z,1.58
2024-03-02T15:53:48.677Z,1.13
2024-03-02T15:56:15.807Z,1.63
2024-03-02T15:58:42.700Z,2.10
2024-03-02T16:01:09.787Z,1.70
2024-03-02T16:03:37.120Z,2.10
2024-03-02T16:06:04.461Z,1.92
2024-03-02T16:08:31.291Z,1.65
2024-03-02T16:10:59.473Z,1.63
2024-03-02T16:13:27.703Z,2.10
2024-03-02T16:15:54.616Z,1.25
2024-03-02T16:18:21.761Z,1.48
2024-03-02T16:20:48.588Z,1.67
2024-03-02T16:23:15.538Z,1.40
2024-03-02T16:25:42.700Z,1.23
2024-03-02T16:28:09.878Z,1.90
2024-03-02T16:30:38.088Z,1.75
2024-03-02T16:33:05.231Z,1.50
2024-03-02T16:35:32.103Z,1.60
2024-03-02T16:37:59.150Z,1.83
2024-03-02T16:40:26.082Z,2.30
2024-03-02T16:42:53.527Z,2.40
2024-03-02T16:45:20.565Z,2.75
2024-03-02T16:47:47.460Z,2.10
2024-03-02T16:50:14.405Z,1.85
2024-03-02T16:52:41.308Z,2.20
2024-03-02T16:55:08.653Z,1.67
2024-03-02T16:57:35.828Z,1.80
2024-03-02T17:00:02.857Z,2.00
2024-03-02T17:02:30.181Z,1.90
2024-03-02T17:04:57.729Z,2.13
2024-03-02T17:07:26.755Z,1.95
2024-03-02T17:09:57.065Z,2.10
2024-03-02T17:12:24.575Z,1.95
2024-03-02T17:14:51.438Z,1.50
2024-03-02T17:17:21.023Z,1.45
2024-03-02T17:19:47.938Z,1.48
2024-03-02T17:22:14.978Z,1.60
2024-03-02T17:24:41.979Z,2.03
2024-03-02T17:27:08.797Z,1.50
2024-03-02T17:29:35.815Z,1.60
2024-03-02T17:32:02.927Z,1.52
2024-03-02T17:34:30.255Z,1.60
2024-03-02T17:36:57.285Z,1.60
2024-03-02T17:39:24.237Z,1.90
2024-03-02T17:41:52.298Z,2.17
2024-03-02T17:44:19.263Z,1.38
2024-03-02T17:46:46.081Z,1.40
2024-03-02T17:49:13.088Z,1.25
2024-03-02T17:51:40.683Z,1.48
2024-03-02T17:54:07.734Z,1.55
2024-03-02T17:56:34.631Z,1.50
2024-03-02T17:59:01.624Z,1.67
2024-03-02T18:01:28.638Z,1.20
2024-03-02T18:03:55.828Z,1.50
2024-03-02T18:06:22.824Z,1.33
2024-03-02T18:08:50.577Z,1.10
2024-03-02T18:11:19.243Z,1.73
2024-03-02T18:13:46.867Z,1.17
2024-03-02T18:16:17.443Z,1.27
2024-03-02T18:18:44.737Z,1.30
2024-03-02T18:21:12.377Z,1.52
2024-03-02T18:23:39.587Z,1.30
2024-03-02T18:26:06.536Z,1.30
2024-03-02T18:28:33.523Z,1.30
2024-03-02T18:31:00.808Z,1.13
2024-03-02T18:33:27.833Z,1.27
2024-03-02T18:35:56.771Z,1.20
2024-03-02T18:38:23.855Z,1.70
2024-03-02T18:40:50.875Z,1.77
2024-03-02T18:43:18.003Z,1.25
2024-03-02T18:45:44.953Z,1.40
2024-03-02T18:48:12.050Z,1.33
2024-03-02T18:50:38.995Z,1.60
2024-03-02T18:53:09.785Z,1.85
2024-03-02T18:55:38.047Z,1.65
2024-03-02T18:58:05.304Z,1.23
2024-03-02T19:00:32.320Z,1.85
2024-03-02T19:02:59.731Z,1.80
2024-03-02T19:05:26.673Z,1.15
2024-03-02T19:07:53.648Z,1.10
2024-03-02T19:10:20.671Z,2.05
2024-03-02T19:12:49.141Z,1.33
2024-03-02T19:15:16.268Z,1.55
2024-03-02T19:17:44.048Z,1.60
2024-03-02T19:20:12.482Z,1.30
2024-03-02T19:22:40.062Z,1.50
2024-03-02T19:25:10.754Z,1.27
2024-03-02T19:27:38.479Z,1.23
2024-03-02T19:30:09.225Z,1.20
2024-03-02T19:32:36.416Z,1.10
2024-03-02T19:35:03.503Z,1.42
2024-03-02T19:37:30.348Z,1.30
2024-03-02T19:39:58.518Z,1.40
2024-03-02T19:42:25.543Z,1.20
2024-03-02T19:44:52.576Z,1.40
2024-03-02T19:47:20.308Z,1.17
2024-03-02T19:49:47.744Z,1.27
2024-03-02T19:52:15.013Z,1.38
2024-03-02T19:54:42.123Z,1.38
2024-03-02T19:57:09.100Z,1.10
2024-03-02T19:59:36.216Z,1.45
2024-03-02T20:02:03.321Z,1.20
2024-03-02T20:04:30.453Z,1.50
2024-03-02T20:06:57.512Z,1.38
2024-03-02T20:09:24.445Z,1.60
2024-03-02T20:11:52.297Z,1.48
2024-03-02T20:14:19.258Z,1.60
2024-03-02T20:16:46.264Z,1.25
2024-03-02T20:19:13.393Z,1.33
2024-03-02T20:21:40.787Z,1.35
2024-03-02T20:24:08.117Z,1.65
2024-03-02T20:26:36.150Z,1.42
2024-03-02T20:29:04.744Z,1.48
2024-03-02T20:31:31.743Z,1.38
2024-03-02T20:33:58.717Z,1.83
2024-03-02T20:36:25.675Z,1.60
2024-03-02T20:38:52.687Z,1.65
2024-03-02T20:41:20.591Z,1.88
2024-03-02T20:43:47.853Z,1.70
2024-03-02T20:46:16.241Z,1.70
2024-03-02T20:48:43.429Z,1.58
2024-03-02T20:51:11.695Z,1.90
2024-03-02T20:53:38.597Z,1.75
2024-03-02T20:56:05.865Z,1.77
2024-03-02T20:58:33.081Z,1.55
2024-03-02T21:01:00.114Z,1.55
2024-03-02T21:03:27.082Z,1.65
2024-03-02T21:05:54.044Z,1.60
2024-03-02T21:08:21.063Z,2.03
2024-03-02T21:10:49.903Z,1.90
2024-03-02T21:13:17.927Z,1.65
2024-03-02T21:15:45.391Z,1.75
2024-03-02T21:18:12.801Z,1.60
2024-03-02T21:20:39.669Z,1.67
2024-03-02T21:23:07.833Z,1.58
2024-03-02T21:25:36.747Z,1.58
2024-03-02T21:28:04.276Z,1.30
2024-03-02T21:30:32.116Z,1.38
2024-03-02T21:32:59.865Z,1.33
2024-03-02T21:35:28.551Z,1.52
2024-03-02T21:37:56.000Z,1.50
2024-03-02T21:40:23.117Z,1.38
2024-03-02T21:42:52.095Z,1.20
2024-03-02T21:45:19.287Z,1.58
2024-03-02T21:47:47.130Z,1.45
2024-03-02T21:50:14.286Z,1.38
2024-03-02T21:52:41.418Z,1.50
2024-03-02T21:55:11.897Z,1.45
2024-03-02T21:57:39.617Z,1.70
2024-03-02T22:00:07.473Z,1.70
2024-03-02T22:02:34.444Z,1.30
2024-03-02T22:05:01.371Z,1.70
2024-03-02T22:07:28.260Z,1.45
2024-03-02T22:09:55.309Z,1.20
2024-03-02T22:12:22.422Z,1.40
2024-03-02T22:14:49.331Z,1.30
2024-03-02T22:17:16.317Z,1.27
2024-03-02T22:19:43.226Z,1.20
2024-03-02T22:22:10.405Z,1.42
2024-03-02T22:24:38.006Z,1.35
2024-03-02T22:27:08.294Z,1.30
2024-03-02T22:29:36.142Z,1.70
2024-03-02T22:32:03.554Z,1.48
2024-03-02T22:34:30.684Z,1.40
2024-03-02T22:36:57.836Z,1.65
2024-03-02T22:39:24.991Z,1.50
2024-03-02T22:41:53.064Z,1.65
2024-03-02T22:44:28.975Z,1.88
2024-03-02T22:46:56.533Z,1.73
2024-03-02T22:49:23.902Z,1.70
2024-03-02T22:51:53.280Z,1.90
2024-03-02T22:54:22.589Z,1.80
2024-03-02T22:56:49.734Z,1.88
2024-03-02T22:59:16.925Z,1.88
2024-03-02T23:01:45.595Z,1.50
2024-03-02T23:04:12.891Z,1.60
2024-03-02T23:06:42.496Z,1.55
2024-03-02T23:09:09.410Z,1.60
2024-03-02T23:11:36.660Z,1.60
2024-03-02T23:14:06.021Z,1.42
2024-03-02T23:16:35.865Z,2.00
2024-03-02T23:19:02.927Z,1.65
2024-03-02T23:21:30.048Z,1.70
2024-03-02T23:23:58.897Z,1.70
2024-03-02T23:26:26.339Z,1.70
2024-03-02T23:28:53.227Z,1.83
2024-03-02T23:31:20.223Z,1.52
2024-03-02T23:33:49.422Z,1.98
2024-03-02T23:36:16.358Z,1.65
2024-03-02T23:38:43.231Z,1.30
2024-03-02T23:41:11.582Z,1.70
2024-03-02T23:43:39.402Z,1.48
2024-03-02T23:46:07.946Z,1.50
2024-03-02T23:48:35.860Z,1.60
2024-03-02T23:51:03.167Z,1.88
2024-03-02T23:53:31.461Z,1.73
2024-03-02T23:56:10.096Z,1.40
2024-03-02T23:58:37.027Z,1.77
